sensor_id;sensor_type;location;lat;lon;timestamp;pressure;altitude;pressure_sealevel;temperature;humidity
75312;BME280;63906;55.686;37.532;2023-02-01T00:04:24;98192.41;;;0.79;79.92
75312;BME280;63906;55.686;37.532;2023-02-01T00:09:25;98147.09;;;0.50;79.97
75312;BME280;63906;55.686;37.532;2023-02-01T00:14:25;98192.06;;;1.06;80.24
75312;BME280;63906;55.686;37.532;2023-02-01T00:19:26;98208.56;;;0.97;79.55
75312;BME280;63906;55.686;37.532;2023-02-01T00:24:26;98184.44;;;0.80;79.90
75312;BME280;63906;55.686;37.532;2023-02-01T00:29:27;98176.38;;;0.84;79.28
75312;BME280;63906;55.686;37.532;2023-02-01T00:34:28;98208.09;;;1.02;80.01
75312;BME280;63906;55.686;37.532;2023-02-01T00:39:28;98172.50;;;0.63;79.67
75312;BME280;63906;55.686;37.532;2023-02-01T00:44:29;98210.19;;;0.90;79.12
75312;BME280;63906;55.686;37.532;2023-02-01T00:49:33;98202.91;;;1.02;79.96
75312;BME280;63906;55.686;37.532;2023-02-01T00:54:33;98166.78;;;0.92;79.99
75312;BME280;63906;55.686;37.532;2023-02-01T00:59:34;98193.34;;;1.02;79.39
75312;BME280;63906;55.686;37.532;2023-02-01T01:04:35;98195.78;;;1.12;78.88
75312;BME280;63906;55.686;37.532;2023-02-01T01:09:35;98177.63;;;1.12;79.63
75312;BME280;63906;55.686;37.532;2023-02-01T01:14:36;98198.50;;;1.27;79.20
75312;BME280;63906;55.686;37.532;2023-02-01T01:19:36;98208.22;;;1.25;79.53
75312;BME280;63906;55.686;37.532;2023-02-01T01:24:37;98184.44;;;1.13;78.87
75312;BME280;63906;55.686;37.532;2023-02-01T01:29:37;98211.59;;;1.33;77.83
75312;BME280;63906;55.686;37.532;2023-02-01T01:34:38;98200.75;;;1.22;78.20
75312;BME280;63906;55.686;37.532;2023-02-01T01:39:39;98229.44;;;1.20;78.22
75312;BME280;63906;55.686;37.532;2023-02-01T01:44:59;98220.72;;;1.13;78.25
75312;BME280;63906;55.686;37.532;2023-02-01T01:50:01;98224.72;;;1.24;78.40
75312;BME280;63906;55.686;37.532;2023-02-01T01:55:03;98206.13;;;1.04;78.80
75312;BME280;63906;55.686;37.532;2023-02-01T02:00:08;98183.50;;;0.90;77.65
75312;BME280;63906;55.686;37.532;2023-02-01T02:05:10;98228.31;;;1.15;78.60
75312;BME280;63906;55.686;37.532;2023-02-01T02:10:13;98215.03;;;1.26;78.71
75312;BME280;63906;55.686;37.532;2023-02-01T02:15:15;98205.63;;;1.25;78.25
75312;BME280;63906;55.686;37.532;2023-02-01T02:47:59;98238.97;;;1.28;78.26
75312;BME280;63906;55.686;37.532;2023-02-01T02:58:27;98214.72;;;1.13;78.37
75312;BME280;63906;55.686;37.532;2023-02-01T03:03:46;98241.91;;;1.25;77.30
75312;BME280;63906;55.686;37.532;2023-02-01T03:09:33;98231.56;;;1.08;77.81
75312;BME280;63906;55.686;37.532;2023-02-01T03:14:37;98241.28;;;1.06;78.42
75312;BME280;63906;55.686;37.532;2023-02-01T03:19:45;98226.69;;;1.05;78.38
75312;BME280;63906;55.686;37.532;2023-02-01T03:24:54;98242.91;;;1.07;77.75
75312;BME280;63906;55.686;37.532;2023-02-01T03:34:58;98238.03;;;1.04;78.05
75312;BME280;63906;55.686;37.532;2023-02-01T03:40:08;98231.22;;;1.03;78.64
75312;BME280;63906;55.686;37.532;2023-02-01T03:45:22;98220.53;;;1.15;78.44
75312;BME280;63906;55.686;37.532;2023-02-01T03:50:25;98265.72;;;1.28;78.22
75312;BME280;63906;55.686;37.532;2023-02-01T03:55:28;98261.81;;;1.32;78.42
75312;BME280;63906;55.686;37.532;2023-02-01T04:00:30;98245.31;;;1.25;78.71
75312;BME280;63906;55.686;37.532;2023-02-01T04:05:30;98251.28;;;1.18;78.64
75312;BME280;63906;55.686;37.532;2023-02-01T04:10:31;98254.53;;;1.12;77.65
75312;BME280;63906;55.686;37.532;2023-02-01T04:15:32;98270.75;;;1.22;77.95
75312;BME280;63906;55.686;37.532;2023-02-01T04:20:34;98287.75;;;1.32;78.11
75312;BME280;63906;55.686;37.532;2023-02-01T04:25:34;98260.69;;;1.11;77.80
75312;BME280;63906;55.686;37.532;2023-02-01T04:30:34;98280.63;;;1.18;78.37
75312;BME280;63906;55.686;37.532;2023-02-01T04:35:35;98274.31;;;1.21;78.45
75312;BME280;63906;55.686;37.532;2023-02-01T04:40:35;98286.59;;;1.35;78.03
75312;BME280;63906;55.686;37.532;2023-02-01T04:45:38;98299.56;;;1.43;79.10
75312;BME280;63906;55.686;37.532;2023-02-01T04:50:38;98309.59;;;1.30;77.57
75312;BME280;63906;55.686;37.532;2023-02-01T04:55:39;98292.09;;;1.40;78.71
75312;BME280;63906;55.686;37.532;2023-02-01T05:00:39;98311.88;;;1.41;78.41
75312;BME280;63906;55.686;37.532;2023-02-01T05:05:40;98290.50;;;1.23;78.30
75312;BME280;63906;55.686;37.532;2023-02-01T05:10:40;98318.38;;;1.37;78.40
75312;BME280;63906;55.686;37.532;2023-02-01T05:15:41;98286.31;;;1.14;77.89
75312;BME280;63906;55.686;37.532;2023-02-01T05:20:42;98328.88;;;1.35;78.35
75312;BME280;63906;55.686;37.532;2023-02-01T05:25:42;98323.88;;;1.26;77.06
75312;BME280;63906;55.686;37.532;2023-02-01T05:30:43;98323.84;;;1.42;77.81
75312;BME280;63906;55.686;37.532;2023-02-01T05:35:44;98309.94;;;1.27;78.63
75312;BME280;63906;55.686;37.532;2023-02-01T05:40:44;98309.44;;;1.23;77.05
75312;BME280;63906;55.686;37.532;2023-02-01T05:45:51;98337.47;;;1.28;76.54
75312;BME280;63906;55.686;37.532;2023-02-01T05:50:52;98314.31;;;1.26;77.79
75312;BME280;63906;55.686;37.532;2023-02-01T05:55:52;98334.41;;;1.41;78.37
75312;BME280;63906;55.686;37.532;2023-02-01T06:06:12;98346.03;;;1.37;77.36
75312;BME280;63906;55.686;37.532;2023-02-01T06:11:13;98365.00;;;1.29;76.69
75312;BME280;63906;55.686;37.532;2023-02-01T06:16:14;98363.72;;;1.41;76.42
75312;BME280;63906;55.686;37.532;2023-02-01T06:21:15;98354.66;;;1.37;77.01
75312;BME280;63906;55.686;37.532;2023-02-01T06:26:23;98365.34;;;1.42;77.03
75312;BME280;63906;55.686;37.532;2023-02-01T06:31:24;98352.22;;;1.27;76.54
75312;BME280;63906;55.686;37.532;2023-02-01T06:36:25;98344.94;;;1.39;78.33
75312;BME280;63906;55.686;37.532;2023-02-01T06:41:26;98321.91;;;1.12;78.15
75312;BME280;63906;55.686;37.532;2023-02-01T06:46:27;98343.28;;;1.05;76.51
75312;BME280;63906;55.686;37.532;2023-02-01T06:51:27;98346.84;;;1.04;77.70
75312;BME280;63906;55.686;37.532;2023-02-01T06:56:31;98366.28;;;1.17;76.72
75312;BME280;63906;55.686;37.532;2023-02-01T07:01:32;98382.53;;;1.43;76.79
75312;BME280;63906;55.686;37.532;2023-02-01T07:06:33;98362.59;;;1.44;77.16
75312;BME280;63906;55.686;37.532;2023-02-01T07:11:34;98375.88;;;1.24;76.05
75312;BME280;63906;55.686;37.532;2023-02-01T07:16:34;98383.47;;;1.18;76.51
75312;BME280;63906;55.686;37.532;2023-02-01T07:21:35;98397.56;;;1.23;76.53
75312;BME280;63906;55.686;37.532;2023-02-01T07:26:35;98398.19;;;1.09;75.82
75312;BME280;63906;55.686;37.532;2023-02-01T07:31:38;98393.84;;;1.34;75.99
75312;BME280;63906;55.686;37.532;2023-02-01T07:36:44;98405.06;;;1.51;76.06
75312;BME280;63906;55.686;37.532;2023-02-01T07:41:45;98370.84;;;1.23;76.05
75312;BME280;63906;55.686;37.532;2023-02-01T07:46:46;98408.44;;;1.59;76.77
75312;BME280;63906;55.686;37.532;2023-02-01T07:51:46;98380.25;;;1.40;76.69
75312;BME280;63906;55.686;37.532;2023-02-01T07:56:48;98394.66;;;1.43;76.83
75312;BME280;63906;55.686;37.532;2023-02-01T08:01:48;98381.06;;;1.57;75.47
75312;BME280;63906;55.686;37.532;2023-02-01T08:06:49;98392.72;;;1.53;75.44
75312;BME280;63906;55.686;37.532;2023-02-01T08:11:49;98366.97;;;1.51;76.07
75312;BME280;63906;55.686;37.532;2023-02-01T08:16:50;98390.78;;;1.55;75.00
75312;BME280;63906;55.686;37.532;2023-02-01T08:21:50;98398.69;;;1.86;76.22
75312;BME280;63906;55.686;37.532;2023-02-01T08:26:51;98390.59;;;1.48;73.70
75312;BME280;63906;55.686;37.532;2023-02-01T08:31:51;98375.41;;;1.61;73.81
75312;BME280;63906;55.686;37.532;2023-02-01T08:36:53;98383.72;;;2.04;74.88
75312;BME280;63906;55.686;37.532;2023-02-01T08:42:00;98391.19;;;2.24;73.82
75312;BME280;63906;55.686;37.532;2023-02-01T08:47:19;98382.53;;;2.31;74.23
75312;BME280;63906;55.686;37.532;2023-02-01T08:52:20;98387.66;;;2.48;73.93
75312;BME280;63906;55.686;37.532;2023-02-01T08:57:21;98363.78;;;2.52;74.93
75312;BME280;63906;55.686;37.532;2023-02-01T09:02:22;98387.47;;;2.57;73.02
75312;BME280;63906;55.686;37.532;2023-02-01T09:07:23;98342.44;;;2.34;72.21
75312;BME280;63906;55.686;37.532;2023-02-01T09:12:23;98345.28;;;2.47;71.18
75312;BME280;63906;55.686;37.532;2023-02-01T09:17:24;98348.44;;;2.65;72.02
75312;BME280;63906;55.686;37.532;2023-02-01T09:22:25;98353.94;;;2.70;71.90
75312;BME280;63906;55.686;37.532;2023-02-01T09:27:26;98308.47;;;2.12;71.20
75312;BME280;63906;55.686;37.532;2023-02-01T09:32:26;98377.22;;;2.25;71.49
75312;BME280;63906;55.686;37.532;2023-02-01T09:37:28;98381.16;;;2.12;71.64
75312;BME280;63906;55.686;37.532;2023-02-01T09:47:56;98358.19;;;1.77;71.80
75312;BME280;63906;55.686;37.532;2023-02-01T09:58:39;98291.47;;;1.30;72.30
75312;BME280;63906;55.686;37.532;2023-02-01T10:03:41;98330.31;;;1.54;72.88
75312;BME280;63906;55.686;37.532;2023-02-01T10:14:10;98361.91;;;1.66;74.28
75312;BME280;63906;55.686;37.532;2023-02-01T10:24:42;98356.59;;;1.43;75.26
75312;BME280;63906;55.686;37.532;2023-02-01T10:29:48;98359.03;;;1.28;75.81
75312;BME280;63906;55.686;37.532;2023-02-01T10:35:07;98355.44;;;1.29;76.07
75312;BME280;63906;55.686;37.532;2023-02-01T10:40:20;98359.63;;;0.90;78.10
75312;BME280;63906;55.686;37.532;2023-02-01T10:45:27;98338.06;;;0.73;77.89
75312;BME280;63906;55.686;37.532;2023-02-01T10:50:42;98369.78;;;0.67;79.16
75312;BME280;63906;55.686;37.532;2023-02-01T11:00:53;98337.88;;;0.50;79.34
75312;BME280;63906;55.686;37.532;2023-02-01T11:05:55;98356.78;;;0.50;79.48
75312;BME280;63906;55.686;37.532;2023-02-01T11:11:02;98356.13;;;0.48;79.44
75312;BME280;63906;55.686;37.532;2023-02-01T11:16:04;98341.56;;;0.47;78.86
75312;BME280;63906;55.686;37.532;2023-02-01T11:21:06;98349.31;;;0.47;78.85
75312;BME280;63906;55.686;37.532;2023-02-01T11:26:19;98329.25;;;0.41;78.42
75312;BME280;63906;55.686;37.532;2023-02-01T11:31:22;98357.59;;;0.51;78.68
75312;BME280;63906;55.686;37.532;2023-02-01T11:36:28;98358.41;;;0.51;77.42
75312;BME280;63906;55.686;37.532;2023-02-01T11:41:30;98366.47;;;0.48;77.52
75312;BME280;63906;55.686;37.532;2023-02-01T11:46:34;98364.75;;;0.57;78.20
75312;BME280;63906;55.686;37.532;2023-02-01T11:57:24;98371.31;;;1.10;78.11
75312;BME280;63906;55.686;37.532;2023-02-01T12:08:12;98383.75;;;0.98;77.45
75312;BME280;63906;55.686;37.532;2023-02-01T12:29:35;98370.13;;;0.80;75.03
75312;BME280;63906;55.686;37.532;2023-02-01T12:45:14;98395.84;;;0.73;73.85
75312;BME280;63906;55.686;37.532;2023-02-01T12:50:21;98398.38;;;1.07;74.33
75312;BME280;63906;55.686;37.532;2023-02-01T12:55:50;98379.22;;;0.92;73.34
75312;BME280;63906;55.686;37.532;2023-02-01T13:00:54;98403.38;;;1.01;73.95
75312;BME280;63906;55.686;37.532;2023-02-01T13:05:58;98402.91;;;1.14;73.80
75312;BME280;63906;55.686;37.532;2023-02-01T13:11:30;98390.53;;;0.83;72.35
75312;BME280;63906;55.686;37.532;2023-02-01T13:16:38;98395.72;;;0.83;72.40
75312;BME280;63906;55.686;37.532;2023-02-01T13:21:43;98393.56;;;0.62;72.44
75312;BME280;63906;55.686;37.532;2023-02-01T13:26:46;98366.69;;;0.63;72.50
75312;BME280;63906;55.686;37.532;2023-02-01T13:42:29;98409.94;;;0.79;72.43
75312;BME280;63906;55.686;37.532;2023-02-01T13:47:39;98387.53;;;0.53;72.59
75312;BME280;63906;55.686;37.532;2023-02-01T13:52:43;98383.06;;;0.72;72.65
75312;BME280;63906;55.686;37.532;2023-02-01T13:57:46;98386.91;;;0.68;73.14
75312;BME280;63906;55.686;37.532;2023-02-01T14:02:49;98405.41;;;0.73;71.52
75312;BME280;63906;55.686;37.532;2023-02-01T14:13:12;98410.75;;;0.79;72.34
75312;BME280;63906;55.686;37.532;2023-02-01T14:29:00;98387.19;;;0.48;72.58
75312;BME280;63906;55.686;37.532;2023-02-01T14:34:24;98423.50;;;0.65;71.63
75312;BME280;63906;55.686;37.532;2023-02-01T14:40:15;98402.09;;;0.54;72.37
75312;BME280;63906;55.686;37.532;2023-02-01T14:44:53;98401.38;;;0.36;72.73
75312;BME280;63906;55.686;37.532;2023-02-01T14:55:15;98434.59;;;0.99;71.58
75312;BME280;63906;55.686;37.532;2023-02-01T15:00:21;98433.59;;;0.84;71.56
75312;BME280;63906;55.686;37.532;2023-02-01T15:05:40;98409.06;;;0.54;72.22
75312;BME280;63906;55.686;37.532;2023-02-01T15:10:44;98441.03;;;0.79;71.79
75312;BME280;63906;55.686;37.532;2023-02-01T15:16:00;98442.19;;;0.85;71.66
75312;BME280;63906;55.686;37.532;2023-02-01T15:21:02;98444.41;;;0.71;71.19
75312;BME280;63906;55.686;37.532;2023-02-01T15:26:03;98429.94;;;0.61;71.05
75312;BME280;63906;55.686;37.532;2023-02-01T15:31:05;98453.88;;;0.54;71.40
75312;BME280;63906;55.686;37.532;2023-02-01T15:46:12;98450.91;;;0.41;71.84
75312;BME280;63906;55.686;37.532;2023-02-01T15:51:23;98467.88;;;0.70;71.85
75312;BME280;63906;55.686;37.532;2023-02-01T15:56:29;98457.97;;;0.65;71.79
75312;BME280;63906;55.686;37.532;2023-02-01T16:01:37;98460.72;;;0.64;73.32
75312;BME280;63906;55.686;37.532;2023-02-01T16:06:46;98465.09;;;0.63;73.14
75312;BME280;63906;55.686;37.532;2023-02-01T16:16:58;98472.25;;;0.43;72.18
75312;BME280;63906;55.686;37.532;2023-02-01T16:21:58;98444.25;;;0.39;72.76
75312;BME280;63906;55.686;37.532;2023-02-01T16:26:59;98459.88;;;0.29;73.02
75312;BME280;63906;55.686;37.532;2023-02-01T16:32:00;98462.13;;;0.24;73.03
75312;BME280;63906;55.686;37.532;2023-02-01T16:37:03;98479.63;;;0.56;72.61
75312;BME280;63906;55.686;37.532;2023-02-01T16:42:14;98459.06;;;0.29;72.24
75312;BME280;63906;55.686;37.532;2023-02-01T16:47:19;98422.81;;;0.20;72.50
75312;BME280;63906;55.686;37.532;2023-02-01T16:52:22;98470.28;;;0.37;72.29
75312;BME280;63906;55.686;37.532;2023-02-01T16:57:23;98439.56;;;0.42;72.43
75312;BME280;63906;55.686;37.532;2023-02-01T17:02:26;98472.72;;;0.73;71.77
75312;BME280;63906;55.686;37.532;2023-02-01T17:07:27;98454.19;;;0.51;72.57
75312;BME280;63906;55.686;37.532;2023-02-01T17:12:29;98472.25;;;0.43;71.14
75312;BME280;63906;55.686;37.532;2023-02-01T17:17:34;98463.88;;;0.49;71.37
75312;BME280;63906;55.686;37.532;2023-02-01T17:22:35;98466.69;;;0.30;71.04
75312;BME280;63906;55.686;37.532;2023-02-01T17:27:36;98492.13;;;0.35;70.36
75312;BME280;63906;55.686;37.532;2023-02-01T17:32:41;98491.06;;;0.45;70.42
75312;BME280;63906;55.686;37.532;2023-02-01T17:37:45;98474.16;;;0.33;71.32
75312;BME280;63906;55.686;37.532;2023-02-01T17:42:46;98487.13;;;0.41;71.13
75312;BME280;63906;55.686;37.532;2023-02-01T17:47:47;98451.88;;;0.40;70.79
75312;BME280;63906;55.686;37.532;2023-02-01T17:52:48;98475.59;;;0.62;71.61
75312;BME280;63906;55.686;37.532;2023-02-01T17:57:48;98452.88;;;0.47;71.80
75312;BME280;63906;55.686;37.532;2023-02-01T18:02:49;98482.00;;;0.49;70.15
75312;BME280;63906;55.686;37.532;2023-02-01T18:07:50;98457.66;;;0.34;70.40
75312;BME280;63906;55.686;37.532;2023-02-01T18:12:50;98474.38;;;0.48;70.27
75312;BME280;63906;55.686;37.532;2023-02-01T18:17:51;98447.13;;;0.02;71.43
75312;BME280;63906;55.686;37.532;2023-02-01T18:22:52;98474.13;;;0.25;72.20
75312;BME280;63906;55.686;37.532;2023-02-01T18:27:54;98457.47;;;0.02;71.44
75312;BME280;63906;55.686;37.532;2023-02-01T18:32:55;98474.50;;;0.12;71.38
75312;BME280;63906;55.686;37.532;2023-02-01T18:37:57;98478.38;;;0.34;72.43
75312;BME280;63906;55.686;37.532;2023-02-01T18:42:58;98469.28;;;0.30;71.83
75312;BME280;63906;55.686;37.532;2023-02-01T18:47:59;98477.91;;;0.13;72.04
75312;BME280;63906;55.686;37.532;2023-02-01T18:53:04;98459.81;;;0.13;72.36
75312;BME280;63906;55.686;37.532;2023-02-01T18:58:05;98465.38;;;0.26;71.93
75312;BME280;63906;55.686;37.532;2023-02-01T19:03:06;98454.50;;;-0.04;72.82
75312;BME280;63906;55.686;37.532;2023-02-01T19:08:07;98462.13;;;-0.20;74.23
75312;BME280;63906;55.686;37.532;2023-02-01T19:13:10;98461.69;;;-0.15;75.87
75312;BME280;63906;55.686;37.532;2023-02-01T19:18:14;98484.69;;;-0.30;78.49
75312;BME280;63906;55.686;37.532;2023-02-01T19:23:19;98487.88;;;-0.18;77.54
75312;BME280;63906;55.686;37.532;2023-02-01T19:28:20;98467.03;;;-0.35;78.57
75312;BME280;63906;55.686;37.532;2023-02-01T19:33:20;98489.66;;;-0.37;79.59
75312;BME280;63906;55.686;37.532;2023-02-01T19:38:21;98488.53;;;-0.34;78.47
75312;BME280;63906;55.686;37.532;2023-02-01T19:43:22;98466.97;;;-0.43;78.10
75312;BME280;63906;55.686;37.532;2023-02-01T19:48:23;98485.72;;;-0.59;78.75
75312;BME280;63906;55.686;37.532;2023-02-01T19:53:24;98469.94;;;-0.56;78.83
75312;BME280;63906;55.686;37.532;2023-02-01T19:58:26;98475.91;;;-0.37;78.77
75312;BME280;63906;55.686;37.532;2023-02-01T20:03:27;98498.72;;;-0.15;78.30
75312;BME280;63906;55.686;37.532;2023-02-01T20:08:28;98501.03;;;-0.12;78.50
75312;BME280;63906;55.686;37.532;2023-02-01T20:13:29;98484.69;;;-0.30;78.55
75312;BME280;63906;55.686;37.532;2023-02-01T20:18:29;98482.56;;;-0.35;78.22
75312;BME280;63906;55.686;37.532;2023-02-01T20:23:30;98483.06;;;-0.31;78.02
75312;BME280;63906;55.686;37.532;2023-02-01T20:28:31;98494.78;;;-0.19;78.27
75312;BME280;63906;55.686;37.532;2023-02-01T20:33:33;98497.63;;;-0.12;77.92
75312;BME280;63906;55.686;37.532;2023-02-01T20:38:33;98470.00;;;-0.47;77.80
75312;BME280;63906;55.686;37.532;2023-02-01T20:43:34;98488.25;;;-0.49;78.58
75312;BME280;63906;55.686;37.532;2023-02-01T20:48:35;98489.66;;;-0.37;78.55
75312;BME280;63906;55.686;37.532;2023-02-01T20:53:36;98471.19;;;-0.60;77.80
75312;BME280;63906;55.686;37.532;2023-02-01T20:58:37;98479.53;;;-0.48;78.83
75312;BME280;63906;55.686;37.532;2023-02-01T21:03:38;98480.19;;;-0.46;77.93
75312;BME280;63906;55.686;37.532;2023-02-01T21:08:39;98497.91;;;-0.33;78.77
75312;BME280;63906;55.686;37.532;2023-02-01T21:13:50;98475.22;;;-0.57;79.20
75312;BME280;63906;55.686;37.532;2023-02-01T21:18:51;98493.88;;;-0.36;78.89
75312;BME280;63906;55.686;37.532;2023-02-01T21:23:57;98483.59;;;-0.45;78.93
75312;BME280;63906;55.686;37.532;2023-02-01T21:28:58;98496.56;;;-0.19;78.67
75312;BME280;63906;55.686;37.532;2023-02-01T21:33:58;98481.44;;;-0.32;78.47
75312;BME280;63906;55.686;37.532;2023-02-01T21:38:59;98485.41;;;-0.20;77.75
75312;BME280;63906;55.686;37.532;2023-02-01T21:44:03;98499.75;;;-0.25;78.82
75312;BME280;63906;55.686;37.532;2023-02-01T21:49:07;98482.47;;;-0.25;77.69
75312;BME280;63906;55.686;37.532;2023-02-01T21:54:09;98503.44;;;-0.28;78.29
75312;BME280;63906;55.686;37.532;2023-02-01T21:59:11;98473.03;;;-0.34;78.27
75312;BME280;63906;55.686;37.532;2023-02-01T22:04:14;98488.69;;;-0.18;77.97
75312;BME280;63906;55.686;37.532;2023-02-01T22:09:22;98502.34;;;-0.25;77.54
75312;BME280;63906;55.686;37.532;2023-02-01T22:14:23;98487.63;;;-0.25;77.75
75312;BME280;63906;55.686;37.532;2023-02-01T22:19:24;98463.47;;;-0.16;78.10
75312;BME280;63906;55.686;37.532;2023-02-01T22:24:24;98484.75;;;-0.04;76.81
75312;BME280;63906;55.686;37.532;2023-02-01T22:29:25;98467.25;;;-0.28;77.37
75312;BME280;63906;55.686;37.532;2023-02-01T22:34:26;98463.81;;;-0.37;77.58
75312;BME280;63906;55.686;37.532;2023-02-01T22:39:26;98477.06;;;-0.14;78.46
75312;BME280;63906;55.686;37.532;2023-02-01T22:44:27;98487.41;;;-0.14;77.79
75312;BME280;63906;55.686;37.532;2023-02-01T22:49:27;98490.31;;;-0.17;77.60
75312;BME280;63906;55.686;37.532;2023-02-01T22:54:28;98472.38;;;-0.36;77.22
75312;BME280;63906;55.686;37.532;2023-02-01T22:59:29;98462.00;;;-0.18;77.64
75312;BME280;63906;55.686;37.532;2023-02-01T23:04:29;98487.28;;;-0.12;77.48
75312;BME280;63906;55.686;37.532;2023-02-01T23:09:30;98496.44;;;-0.18;76.97
75312;BME280;63906;55.686;37.532;2023-02-01T23:14:30;98489.91;;;-0.04;77.97
75312;BME280;63906;55.686;37.532;2023-02-01T23:19:31;98479.72;;;-0.06;77.13
75312;BME280;63906;55.686;37.532;2023-02-01T23:24:32;98488.09;;;-0.12;76.39
75312;BME280;63906;55.686;37.532;2023-02-01T23:29:32;98480.81;;;-0.08;76.67
75312;BME280;63906;55.686;37.532;2023-02-01T23:34:33;98487.63;;;-0.25;76.81
75312;BME280;63906;55.686;37.532;2023-02-01T23:39:33;98466.28;;;-0.27;76.99
75312;BME280;63906;55.686;37.532;2023-02-01T23:44:34;98499.16;;;-0.19;77.27
75312;BME280;63906;55.686;37.532;2023-02-01T23:49:35;98481.94;;;-0.11;77.42
75312;BME280;63906;55.686;37.532;2023-02-01T23:54:36;98480.31;;;-0.12;75.52
75312;BME280;63906;55.686;37.532;2023-02-01T23:59:36;98483.38;;;-0.34;77.13
